Time;durP1;ratioP1;P1;durP2;ratioP2;P2;SDS_P1;SDS_P2;PMS_P1;PMS_P2;Temp;Humidity;BMP_temperature;BMP_pressure;BME280_temperature;BME280_humidity;BME280_pressure;Samples;Min_cycle;Max_cycle;Signal;HPM_P1;HPM_P2
2023/12/04 00:00:28;;;;;;;18.50;12.60;;;-3.60;1.00;;;;;;5095485;28;20176;-40
2023/12/04 00:02:54;;;;;;;16.10;12.90;;;-3.60;1.00;;;;;;5111831;28;20477;-39
2023/12/04 00:05:19;;;;;;;18.67;13.53;;;-3.60;1.00;;;;;;5113327;28;20271;-41
2023/12/04 00:07:45;;;;;;;18.80;14.13;;;-3.60;1.00;;;;;;5094606;28;20176;-41
2023/12/04 00:10:10;;;;;;;18.17;14.07;;;-3.60;1.00;;;;;;5094867;28;20205;-41
2023/12/04 00:12:36;;;;;;;18.90;13.90;;;-3.60;1.00;;;;;;5117246;28;20203;-40
2023/12/04 00:15:02;;;;;;;18.60;13.87;;;-3.70;1.00;;;;;;5116755;28;20203;-42
2023/12/04 00:17:27;;;;;;;20.27;14.10;;;-3.70;1.00;;;;;;5101072;28;20537;-40
2023/12/04 00:19:53;;;;;;;18.30;12.60;;;-3.70;1.00;;;;;;5100439;28;20187;-42
2023/12/04 00:22:19;;;;;;;16.93;13.60;;;-3.80;1.00;;;;;;5118562;28;20172;-41
2023/12/04 00:24:45;;;;;;;21.33;13.27;;;-3.80;1.00;;;;;;5117686;28;20198;-43
2023/12/04 00:27:10;;;;;;;18.23;12.97;;;-3.80;1.00;;;;;;5118480;28;20409;-41
2023/12/04 00:29:36;;;;;;;16.10;13.13;;;-3.80;1.00;;;;;;5118080;28;20187;-42
2023/12/04 00:32:01;;;;;;;17.53;12.83;;;-3.80;1.00;;;;;;5117852;28;20231;-40
2023/12/04 00:34:28;;;;;;;16.73;12.93;;;-3.80;1.00;;;;;;5118729;28;20196;-40
2023/12/04 00:36:54;;;;;;;17.80;11.80;;;-3.80;1.00;;;;;;5119734;28;20418;-43
2023/12/04 00:39:19;;;;;;;18.47;13.13;;;-3.80;1.00;;;;;;5100584;28;20581;-41
2023/12/04 00:41:45;;;;;;;14.00;11.50;;;-3.80;1.00;;;;;;5119321;28;20205;-40
2023/12/04 00:44:10;;;;;;;16.17;13.07;;;-3.80;1.00;;;;;;5119793;28;20268;-41
2023/12/04 00:46:36;;;;;;;20.30;13.17;;;-3.80;1.00;;;;;;5119070;28;20205;-40
2023/12/04 00:49:02;;;;;;;17.27;12.27;;;-3.90;14.70;;;;;;5100305;28;20282;-40
2023/12/04 00:51:27;;;;;;;18.23;12.90;;;-3.90;72.60;;;;;;5118867;28;20204;-42
2023/12/04 00:53:53;;;;;;;17.37;12.40;;;-3.90;99.90;;;;;;5117816;28;20393;-41
2023/12/04 00:56:20;;;;;;;20.70;13.93;;;-3.90;99.90;;;;;;5118589;28;20172;-42
2023/12/04 00:58:46;;;;;;;16.20;12.10;;;-3.90;99.90;;;;;;5118359;28;20485;-40
2023/12/04 01:01:11;;;;;;;17.30;12.97;;;-3.90;99.90;;;;;;5118116;28;20790;-41
2023/12/04 01:03:37;;;;;;;17.83;13.03;;;-3.90;99.90;;;;;;5116632;28;20507;-42
2023/12/04 01:06:03;;;;;;;17.37;13.30;;;-3.80;99.90;;;;;;5117972;28;20515;-40
2023/12/04 01:08:29;;;;;;;17.30;13.07;;;-3.90;99.90;;;;;;5117333;28;20413;-42
2023/12/04 01:10:54;;;;;;;21.03;15.20;;;-3.90;99.90;;;;;;5116887;28;20175;-40
2023/12/04 01:13:20;;;;;;;21.60;14.20;;;-3.90;99.90;;;;;;5118446;28;20210;-42
2023/12/04 01:15:46;;;;;;;21.00;15.50;;;-3.90;99.90;;;;;;5118625;28;20232;-40
2023/12/04 01:18:12;;;;;;;18.73;14.60;;;-3.90;99.90;;;;;;5117973;28;20171;-41
2023/12/04 01:20:37;;;;;;;21.70;13.97;;;-3.90;99.90;;;;;;5118723;28;20414;-41
2023/12/04 01:23:03;;;;;;;17.20;13.17;;;-3.90;99.90;;;;;;5100967;28;20190;-40
2023/12/04 01:25:29;;;;;;;17.30;13.43;;;-3.90;99.90;;;;;;5102075;28;20175;-41
2023/12/04 01:27:54;;;;;;;17.63;13.20;;;-3.90;99.90;;;;;;5100621;28;20180;-41
2023/12/04 01:30:20;;;;;;;19.53;13.93;;;-3.90;56.30;;;;;;5101464;28;20258;-40
2023/12/04 01:32:46;;;;;;;18.47;12.90;;;-3.90;31.40;;;;;;5100870;28;20250;-44
2023/12/04 01:35:12;;;;;;;17.43;13.10;;;-3.90;1.00;;;;;;5100378;28;20270;-41
2023/12/04 01:37:39;;;;;;;20.70;14.67;;;-3.90;1.00;;;;;;5084647;28;20188;-41
2023/12/04 01:40:06;;;;;;;18.63;13.73;;;-3.90;1.00;;;;;;5119207;28;20565;-41
2023/12/04 01:42:32;;;;;;;17.20;12.30;;;-4.00;1.00;;;;;;5101700;28;20547;-40
2023/12/04 01:44:58;;;;;;;16.07;11.73;;;-4.00;1.00;;;;;;5101597;28;20417;-41
2023/12/04 01:47:24;;;;;;;16.57;11.83;;;-3.90;1.00;;;;;;5118447;28;20176;-42
2023/12/04 01:49:50;;;;;;;18.30;12.00;;;-3.90;1.00;;;;;;5099872;28;20187;-41
2023/12/04 01:52:16;;;;;;;18.97;12.13;;;-3.90;1.00;;;;;;5117194;28;20469;-41
2023/12/04 01:54:42;;;;;;;16.30;11.70;;;-3.90;1.00;;;;;;5117359;28;20790;-40
2023/12/04 01:57:08;;;;;;;16.33;13.17;;;-3.90;1.00;;;;;;5082201;28;20421;-41
2023/12/04 01:59:34;;;;;;;16.20;11.63;;;-3.80;1.00;;;;;;5117646;28;20571;-40
2023/12/04 02:02:02;;;;;;;15.10;12.40;;;-3.90;1.00;;;;;;5117002;28;20764;-41
2023/12/04 02:04:27;;;;;;;15.70;12.10;;;-3.90;1.00;;;;;;5117564;28;20175;-40
2023/12/04 02:06:53;;;;;;;15.37;11.90;;;-3.90;1.00;;;;;;5116075;28;20421;-44
2023/12/04 02:09:19;;;;;;;15.80;10.07;;;-3.90;1.00;;;;;;5116629;28;20176;-46
2023/12/04 02:11:45;;;;;;;14.90;11.43;;;-2.80;1.00;;;;;;5115531;28;20656;-44
2023/12/04 02:14:10;;;;;;;21.47;16.47;;;-1.30;1.00;;;;;;5116612;28;20263;-41
2023/12/04 02:16:39;;;;;;;18.53;14.53;;;-0.30;1.00;;;;;;5098439;28;20186;-41
2023/12/04 02:19:13;;;;;;;18.03;14.47;;;-0.50;1.00;;;;;;5117177;28;20176;-40
2023/12/04 02:21:38;;;;;;;19.10;14.67;;;-1.00;1.00;;;;;;5117266;28;20440;-42
2023/12/04 02:24:04;;;;;;;21.60;15.60;;;-1.40;1.00;;;;;;5117453;28;20429;-41
2023/12/04 02:26:36;;;;;;;19.93;13.97;;;-1.80;1.00;;;;;;5098936;28;20249;-39
2023/12/04 02:29:06;;;;;;;22.67;14.43;;;-2.30;1.00;;;;;;5097730;28;20184;-40
2023/12/04 02:31:33;;;;;;;17.87;14.00;;;-2.50;1.00;;;;;;5098653;28;20897;-40
2023/12/04 02:33:59;;;;;;;17.97;14.13;;;-2.80;1.00;;;;;;5097929;28;20413;-41
2023/12/04 02:36:25;;;;;;;17.77;12.47;;;-3.20;1.00;;;;;;5098539;28;20757;-41
2023/12/04 02:38:51;;;;;;;23.37;14.73;;;-3.40;1.00;;;;;;5098709;28;20699;-41
2023/12/04 02:41:17;;;;;;;18.03;12.70;;;-3.50;1.00;;;;;;5098715;28;20425;-40
2023/12/04 02:43:43;;;;;;;17.40;11.90;;;-3.60;99.90;;;;;;5099013;28;20518;-40
2023/12/04 02:46:09;;;;;;;18.13;12.57;;;-3.70;99.90;;;;;;5115650;28;20421;-41
2023/12/04 02:48:34;;;;;;;21.63;14.43;;;-3.70;92.80;;;;;;5115918;28;20268;-41
2023/12/04 02:51:00;;;;;;;14.90;11.47;;;-3.80;1.00;;;;;;5098263;28;20398;-41
2023/12/04 02:53:26;;;;;;;16.27;11.90;;;-3.70;1.00;;;;;;5116284;28;20182;-40
2023/12/04 02:55:51;;;;;;;17.90;13.03;;;-3.70;1.00;;;;;;5116388;28;20525;-41
2023/12/04 02:58:17;;;;;;;16.03;11.47;;;-3.70;99.90;;;;;;5116399;28;20208;-41
2023/12/04 03:00:43;;;;;;;17.33;11.80;;;-3.70;99.90;;;;;;5114911;28;20184;-41
2023/12/04 03:03:09;;;;;;;15.13;11.50;;;-3.70;99.90;;;;;;5114524;28;20711;-43
2023/12/04 03:05:34;;;;;;;16.27;12.27;;;-3.70;99.90;;;;;;5116213;28;20470;-40
2023/12/04 03:08:00;;;;;;;16.30;12.53;;;-3.60;99.90;;;;;;5115708;28;20180;-40
2023/12/04 03:10:25;;;;;;;17.37;12.97;;;-3.60;59.30;;;;;;5115607;28;20624;-41
2023/12/04 03:12:51;;;;;;;17.63;10.77;;;-3.70;15.70;;;;;;5116200;28;20199;-41
2023/12/04 03:15:16;;;;;;;14.57;11.73;;;-3.70;33.10;;;;;;5116314;28;20176;-41
2023/12/04 03:17:42;;;;;;;14.77;10.87;;;-3.70;77.30;;;;;;5116559;28;20179;-40
2023/12/04 03:20:08;;;;;;;16.53;12.60;;;-3.60;99.90;;;;;;5116217;28;20207;-41
2023/12/04 03:22:35;;;;;;;17.40;12.40;;;-3.70;73.70;;;;;;5098199;28;20183;-41
2023/12/04 03:25:01;;;;;;;16.27;11.63;;;-3.70;19.90;;;;;;5116238;28;20445;-42
2023/12/04 03:27:27;;;;;;;16.77;12.80;;;-3.70;1.00;;;;;;5115410;28;20904;-40
2023/12/04 03:29:52;;;;;;;15.70;11.37;;;-3.70;9.50;;;;;;5115843;28;20318;-41
2023/12/04 03:32:18;;;;;;;18.13;12.57;;;-3.70;22.90;;;;;;5116179;28;20254;-43
2023/12/04 03:34:43;;;;;;;17.80;11.63;;;-3.60;14.40;;;;;;5115264;28;20188;-39
2023/12/04 03:37:09;;;;;;;16.53;11.77;;;-3.60;1.00;;;;;;5116343;28;20176;-42
2023/12/04 03:39:34;;;;;;;17.03;11.87;;;-3.60;1.00;;;;;;5115859;28;20274;-40
2023/12/04 03:42:00;;;;;;;17.60;12.97;;;-3.60;1.00;;;;;;5114678;28;20275;-42
2023/12/04 03:44:26;;;;;;;19.20;12.63;;;-3.60;1.00;;;;;;5114167;28;20187;-41
2023/12/04 03:46:51;;;;;;;16.47;11.97;;;-3.60;1.00;;;;;;5100241;28;20196;-40
2023/12/04 03:49:17;;;;;;;17.60;12.27;;;-3.60;1.00;;;;;;5119518;28;20172;-41
2023/12/04 03:51:43;;;;;;;15.87;10.83;;;-3.60;3.80;;;;;;5118537;28;20219;-41
2023/12/04 03:54:08;;;;;;;14.53;11.40;;;-3.60;1.00;;;;;;5100921;28;20187;-41
2023/12/04 03:56:34;;;;;;;16.80;11.70;;;-3.70;1.00;;;;;;5118362;28;20183;-40
2023/12/04 03:58:59;;;;;;;16.47;13.47;;;-3.70;1.00;;;;;;5119240;28;20497;-41
2023/12/04 04:01:25;;;;;;;17.43;11.87;;;-3.70;8.50;;;;;;5118364;28;20236;-40
2023/12/04 04:03:51;;;;;;;17.57;12.10;;;-3.70;41.30;;;;;;5118921;28;20211;-41
2023/12/04 04:06:16;;;;;;;16.77;11.97;;;-3.70;54.60;;;;;;5119348;28;20172;-41
2023/12/04 04:08:42;;;;;;;16.90;10.60;;;-3.60;99.90;;;;;;5100904;28;20193;-40
2023/12/04 04:11:08;;;;;;;18.73;12.87;;;-3.60;99.90;;;;;;5118659;28;20215;-42
2023/12/04 04:13:33;;;;;;;16.10;11.90;;;-3.50;99.90;;;;;;5117790;28;20160;-40
2023/12/04 04:15:59;;;;;;;16.60;11.30;;;-3.50;99.90;;;;;;5099479;28;20167;-40
2023/12/04 04:18:24;;;;;;;16.10;11.80;;;-3.50;99.90;;;;;;5117767;28;20180;-42
2023/12/04 04:20:50;;;;;;;16.30;11.87;;;-3.50;99.90;;;;;;5116611;28;20191;-40
2023/12/04 04:23:16;;;;;;;15.83;11.13;;;-3.50;99.90;;;;;;5117099;28;20469;-41
2023/12/04 04:25:41;;;;;;;16.60;12.90;;;-3.50;99.90;;;;;;5117295;28;20194;-41
2023/12/04 04:28:07;;;;;;;17.20;12.40;;;-3.40;99.90;;;;;;5118887;28;20595;-41
2023/12/04 04:30:32;;;;;;;16.07;11.87;;;-3.40;99.40;;;;;;5116966;28;20180;-41
2023/12/04 04:32:58;;;;;;;17.37;11.70;;;-3.40;76.10;;;;;;5116014;28;20315;-41
2023/12/04 04:35:24;;;;;;;14.80;10.80;;;-3.40;52.50;;;;;;5116518;28;20188;-40
2023/12/04 04:37:50;;;;;;;15.17;10.90;;;-3.40;27.20;;;;;;5117573;28;20225;-41
2023/12/04 04:40:16;;;;;;;16.70;11.20;;;-3.40;27.90;;;;;;5117193;28;20490;-40
2023/12/04 04:42:42;;;;;;;15.60;11.50;;;-3.40;27.50;;;;;;5116293;28;20440;-42
2023/12/04 04:45:08;;;;;;;16.30;10.77;;;-3.30;1.00;;;;;;5098297;28;20698;-42
2023/12/04 04:47:33;;;;;;;17.97;11.57;;;-3.40;1.00;;;;;;5117302;28;20195;-41
2023/12/04 04:49:59;;;;;;;17.00;11.80;;;-3.40;1.00;;;;;;5117113;28;20433;-40
2023/12/04 04:52:24;;;;;;;16.83;12.30;;;-3.40;1.00;;;;;;5116879;28;20235;-40
2023/12/04 04:54:50;;;;;;;12.43;10.07;;;-3.40;1.00;;;;;;5115778;28;20172;-40
2023/12/04 04:57:15;;;;;;;16.70;11.90;;;-3.40;1.00;;;;;;5115259;28;20180;-43
2023/12/04 04:59:41;;;;;;;15.17;10.77;;;-3.30;1.00;;;;;;5116331;28;20248;-42
2023/12/04 05:02:06;;;;;;;14.40;11.00;;;-3.30;2.20;;;;;;5116903;28;20183;-40
2023/12/04 05:04:32;;;;;;;14.90;10.60;;;-3.30;1.00;;;;;;5116150;28;20565;-41
2023/12/04 05:06:58;;;;;;;15.87;10.83;;;-3.30;1.00;;;;;;5118019;28;20175;-40
2023/12/04 05:09:24;;;;;;;14.17;10.43;;;-3.20;1.00;;;;;;5117367;28;20183;-42
2023/12/04 05:11:49;;;;;;;14.60;10.37;;;-3.20;1.00;;;;;;5117213;28;20214;-42
2023/12/04 05:14:15;;;;;;;15.00;10.40;;;-3.20;1.00;;;;;;5116397;28;20708;-40
2023/12/04 05:16:41;;;;;;;14.40;10.40;;;-3.20;1.00;;;;;;5115779;28;20184;-41
2023/12/04 05:19:06;;;;;;;12.47;9.93;;;-3.20;1.00;;;;;;5113128;28;20794;-41
2023/12/04 05:21:32;;;;;;;13.43;9.60;;;-3.20;1.00;;;;;;5113923;28;20292;-39
2023/12/04 05:23:57;;;;;;;15.40;10.83;;;-3.20;1.00;;;;;;5113915;28;20185;-40
2023/12/04 05:26:23;;;;;;;12.70;9.40;;;-3.20;1.00;;;;;;5113214;28;20194;-42
2023/12/04 05:28:49;;;;;;;13.90;9.90;;;-3.20;1.00;;;;;;5112827;28;20270;-39
2023/12/04 05:31:14;;;;;;;14.17;9.70;;;-3.20;1.00;;;;;;5111508;28;20199;-44
2023/12/04 05:33:40;;;;;;;11.97;9.90;;;-3.20;1.00;;;;;;5112799;28;20274;-41
2023/12/04 05:36:06;;;;;;;12.83;9.80;;;-3.20;1.00;;;;;;5078904;28;20180;-41
2023/12/04 05:38:32;;;;;;;14.93;11.60;;;-3.30;1.00;;;;;;5094185;28;20179;-40
2023/12/04 05:40:57;;;;;;;16.00;11.57;;;-3.30;1.00;;;;;;5095415;28;20436;-41
2023/12/04 05:43:23;;;;;;;14.57;9.80;;;-3.30;1.00;;;;;;5114692;28;20172;-41
2023/12/04 05:45:49;;;;;;;12.33;9.50;;;-3.30;1.00;;;;;;5114211;28;20526;-40
2023/12/04 05:48:14;;;;;;;15.63;10.50;;;-3.40;1.00;;;;;;5093897;28;20211;-42
2023/12/04 05:50:40;;;;;;;15.77;10.97;;;-3.40;1.00;;;;;;5114156;28;20190;-40
2023/12/04 05:53:07;;;;;;;14.63;11.63;;;-3.50;1.00;;;;;;5113322;28;20549;-40
2023/12/04 05:55:32;;;;;;;16.70;11.80;;;-3.50;1.00;;;;;;5112579;28;20389;-40
2023/12/04 05:57:58;;;;;;;13.30;10.57;;;-3.60;25.00;;;;;;5113104;28;20417;-41
2023/12/04 06:00:24;;;;;;;15.40;10.60;;;-3.60;89.30;;;;;;5113353;28;20176;-40
2023/12/04 06:02:49;;;;;;;15.80;10.27;;;-3.60;99.90;;;;;;5114109;28;20191;-41
2023/12/04 06:05:15;;;;;;;13.83;10.40;;;-3.50;99.90;;;;;;5112327;28;20195;-40
2023/12/04 06:07:41;;;;;;;13.90;10.33;;;-3.50;99.90;;;;;;5111657;28;20252;-41
2023/12/04 06:10:08;;;;;;;15.43;10.80;;;-3.40;99.90;;;;;;5110495;28;20195;-41
2023/12/04 06:12:34;;;;;;;14.13;10.40;;;-3.40;99.90;;;;;;5110660;28;20568;-41
2023/12/04 06:14:59;;;;;;;15.80;10.90;;;-3.30;99.90;;;;;;5109078;28;20464;-41
2023/12/04 06:17:25;;;;;;;14.00;10.67;;;-3.30;99.90;;;;;;5108050;28;20468;-42
2023/12/04 06:19:53;;;;;;;16.00;10.30;;;-3.20;99.90;;;;;;5107634;28;20210;-41
2023/12/04 06:22:19;;;;;;;15.00;11.90;;;-3.20;99.90;;;;;;5087761;28;20861;-40
2023/12/04 06:24:46;;;;;;;15.20;11.50;;;-3.20;81.80;;;;;;5109817;28;20413;-41
2023/12/04 06:27:17;;;;;;;17.27;12.10;;;-3.20;51.40;;;;;;5109219;28;20777;-41
2023/12/04 06:29:44;;;;;;;15.90;11.40;;;-3.20;39.00;;;;;;5108341;28;20436;-41
2023/12/04 06:32:10;;;;;;;13.60;9.87;;;-3.10;1.00;;;;;;5108668;28;20813;-42
2023/12/04 06:34:36;;;;;;;13.83;11.20;;;-3.10;1.00;;;;;;5108951;28;20449;-41
2023/12/04 06:37:10;;;;;;;15.30;10.00;;;-3.20;1.00;;;;;;5110081;28;20512;-40
2023/12/04 06:39:37;;;;;;;12.23;8.67;;;-3.20;1.00;;;;;;5107141;28;20356;-41
2023/12/04 06:42:04;;;;;;;13.00;9.73;;;-3.10;1.00;;;;;;5105370;28;20493;-40
2023/12/04 06:44:29;;;;;;;13.30;9.73;;;-3.10;1.00;;;;;;5104730;28;20770;-42
2023/12/04 06:46:56;;;;;;;14.07;9.47;;;-3.10;1.00;;;;;;5107445;28;20438;-39
2023/12/04 06:49:24;;;;;;;15.20;10.13;;;-3.10;1.00;;;;;;5106216;28;20270;-41
2023/12/04 06:51:50;;;;;;;12.67;8.63;;;-3.10;1.00;;;;;;5090127;28;20468;-41
2023/12/04 06:54:17;;;;;;;10.83;9.07;;;-3.00;99.90;;;;;;5108502;28;20426;-41
2023/12/04 06:56:43;;;;;;;13.17;9.30;;;-3.00;99.90;;;;;;5109268;28;20610;-42
2023/12/04 06:59:09;;;;;;;13.90;10.67;;;-3.00;99.90;;;;;;5111580;28;20569;-43
2023/12/04 07:01:34;;;;;;;12.20;9.33;;;-3.00;99.90;;;;;;5093000;28;20183;-42
2023/12/04 07:04:00;;;;;;;12.53;10.30;;;-3.10;99.90;;;;;;5109503;28;20179;-39
2023/12/04 07:06:26;;;;;;;12.60;9.50;;;-3.10;99.90;;;;;;5111047;28;20669;-41
2023/12/04 07:08:51;;;;;;;12.87;9.80;;;-3.10;99.90;;;;;;5111431;28;20460;-42
2023/12/04 07:11:17;;;;;;;13.60;9.00;;;-3.10;1.00;;;;;;5111402;28;20500;-41
2023/12/04 07:13:42;;;;;;;13.53;10.10;;;-3.10;1.00;;;;;;5093357;28;20190;-42
2023/12/04 07:16:08;;;;;;;14.63;10.53;;;-3.00;1.00;;;;;;5112259;28;20564;-42
2023/12/04 07:18:34;;;;;;;13.83;10.07;;;-3.00;1.00;;;;;;5111561;28;20268;-41
2023/12/04 07:21:00;;;;;;;14.20;11.67;;;-2.90;20.40;;;;;;5096618;28;20569;-40
2023/12/04 07:23:26;;;;;;;13.67;10.17;;;-2.80;1.00;;;;;;5116610;28;20516;-42
2023/12/04 07:25:52;;;;;;;11.97;9.47;;;-2.70;1.00;;;;;;5097076;28;20425;-42
2023/12/04 07:28:18;;;;;;;15.90;10.50;;;-2.70;1.00;;;;;;5098537;28;20174;-41
2023/12/04 07:30:43;;;;;;;13.13;10.03;;;-2.70;1.00;;;;;;5117124;28;20509;-40
2023/12/04 07:33:09;;;;;;;13.83;9.93;;;-2.60;1.00;;;;;;5116355;28;20312;-40
2023/12/04 07:35:34;;;;;;;15.03;10.37;;;-2.60;99.90;;;;;;5116711;28;20221;-40
2023/12/04 07:38:00;;;;;;;15.10;11.30;;;-2.60;99.90;;;;;;5117349;28;20468;-40
2023/12/04 07:40:26;;;;;;;13.53;10.60;;;-2.60;1.00;;;;;;5099857;28;20195;-39
2023/12/04 07:42:51;;;;;;;16.47;12.03;;;-2.60;99.90;;;;;;5117781;28;20263;-40
2023/12/04 07:45:17;;;;;;;14.77;10.83;;;-2.60;1.00;;;;;;5118747;28;20466;-39
2023/12/04 07:47:43;;;;;;;14.93;11.43;;;-2.60;1.00;;;;;;5118517;28;20180;-40
2023/12/04 07:50:08;;;;;;;14.03;10.10;;;-2.60;99.90;;;;;;5115526;28;20221;-40
2023/12/04 07:52:34;;;;;;;16.20;11.33;;;-2.60;99.90;;;;;;5117307;28;20207;-40
2023/12/04 07:55:00;;;;;;;15.40;10.70;;;-2.60;99.90;;;;;;5116921;28;20256;-39
2023/12/04 07:57:25;;;;;;;14.70;10.60;;;-2.60;99.90;;;;;;5117733;28;20214;-40
2023/12/04 07:59:51;;;;;;;14.20;10.77;;;-2.60;99.90;;;;;;5116204;28;20532;-41
2023/12/04 08:02:17;;;;;;;15.20;11.00;;;-2.50;1.00;;;;;;5079955;28;20195;-42
2023/12/04 08:04:42;;;;;;;14.90;10.77;;;-2.40;1.00;;;;;;5115433;28;20194;-41
2023/12/04 08:07:08;;;;;;;14.20;11.33;;;-2.20;1.00;;;;;;5097390;28;20511;-40
2023/12/04 08:09:33;;;;;;;13.30;10.83;;;-2.10;99.90;;;;;;5092509;28;20192;-40
2023/12/04 08:11:59;;;;;;;16.07;11.63;;;-2.10;99.90;;;;;;5095301;28;20215;-40
2023/12/04 08:14:27;;;;;;;14.00;11.20;;;-2.00;99.90;;;;;;5078122;28;20238;-44
2023/12/04 08:16:53;;;;;;;14.93;10.77;;;-2.00;1.00;;;;;;5096347;28;20181;-40
2023/12/04 08:19:19;;;;;;;14.80;11.53;;;-2.00;1.00;;;;;;5096246;28;20468;-39
2023/12/04 08:21:44;;;;;;;23.87;12.70;;;-2.10;1.00;;;;;;5096197;28;20180;-39
2023/12/04 08:24:10;;;;;;;22.10;14.03;;;-2.10;48.40;;;;;;5096142;28;20181;-39
2023/12/04 08:26:36;;;;;;;33.70;18.23;;;-2.10;45.60;;;;;;5094840;28;20340;-42
2023/12/04 08:29:02;;;;;;;17.10;12.53;;;-2.00;99.90;;;;;;5074251;28;20448;-42
2023/12/04 08:31:28;;;;;;;14.07;10.07;;;-2.00;1.00;;;;;;5058229;28;20825;-40
2023/12/04 08:33:53;;;;;;;16.73;12.30;;;-1.90;1.00;;;;;;5060496;28;20461;-40
2023/12/04 08:36:20;;;;;;;22.90;12.27;;;-1.90;1.00;;;;;;5096179;28;20180;-41
2023/12/04 08:38:46;;;;;;;16.13;11.93;;;-1.90;1.00;;;;;;5096658;28;20173;-40
2023/12/04 08:41:11;;;;;;;14.00;11.13;;;-1.90;1.00;;;;;;5078212;28;20442;-40
2023/12/04 08:43:37;;;;;;;15.53;10.83;;;-1.80;1.00;;;;;;5095333;28;20789;-43
2023/12/04 08:46:03;;;;;;;15.53;10.80;;;-1.80;1.00;;;;;;5096517;28;20172;-39
2023/12/04 08:48:29;;;;;;;19.80;12.17;;;-1.80;99.90;;;;;;5095310;28;20575;-43
2023/12/04 08:50:56;;;;;;;15.60;11.20;;;-1.90;1.00;;;;;;5094780;28;20438;-42
2023/12/04 08:53:22;;;;;;;16.07;10.93;;;-1.80;1.00;;;;;;5095793;28;20426;-40
2023/12/04 08:55:47;;;;;;;12.90;10.47;;;-1.80;1.00;;;;;;5096027;28;20433;-40
2023/12/04 08:58:13;;;;;;;13.13;9.80;;;-1.70;99.90;;;;;;5075872;28;20454;-39
2023/12/04 09:00:42;;;;;;;16.37;12.20;;;-1.80;99.90;;;;;;5093581;28;20268;-40
2023/12/04 09:03:10;;;;;;;15.07;11.33;;;-1.50;99.90;;;;;;5092522;28;20188;-41
2023/12/04 09:05:36;;;;;;;15.33;11.17;;;-1.20;99.90;;;;;;5076996;28;20879;-39
2023/12/04 09:08:02;;;;;;;14.87;10.53;;;-1.20;99.90;;;;;;5094513;28;20483;-40
2023/12/04 09:10:28;;;;;;;14.97;11.43;;;-1.20;14.50;;;;;;5096419;28;20438;-42
2023/12/04 09:12:54;;;;;;;15.30;10.93;;;-1.10;1.00;;;;;;5094316;28;20465;-42
2023/12/04 09:15:20;;;;;;;14.40;10.17;;;-1.00;1.00;;;;;;5093588;28;20184;-41
2023/12/04 09:17:45;;;;;;;15.37;11.80;;;-0.90;1.00;;;;;;5094208;28;20615;-41
2023/12/04 09:20:11;;;;;;;16.10;11.90;;;-0.70;1.00;;;;;;5091503;28;20172;-41
2023/12/04 09:22:38;;;;;;;16.63;11.90;;;-0.60;99.90;;;;;;5093634;28;20207;-43
2023/12/04 09:25:08;;;;;;;12.93;10.63;;;-0.60;99.90;;;;;;5093855;28;20679;-39
2023/12/04 09:27:34;;;;;;;15.50;11.77;;;-0.50;62.60;;;;;;5093032;28;20456;-39
2023/12/04 09:30:00;;;;;;;13.27;7.87;;;-0.50;1.00;;;;;;5075516;28;20726;-39
2023/12/04 09:32:26;;;;;;;26.30;19.17;;;2.60;1.00;;;;;;5094184;28;20482;-40
2023/12/04 09:34:52;;;;;;;19.70;15.47;;;3.50;1.00;;;;;;5093188;28;20835;-41
2023/12/04 09:37:17;;;;;;;16.60;14.20;;;2.90;1.00;;;;;;5092860;28;20175;-43
2023/12/04 09:39:43;;;;;;;16.50;14.13;;;2.80;1.00;;;;;;5092814;28;20595;-41
2023/12/04 09:42:09;;;;;;;16.37;13.60;;;2.40;1.00;;;;;;5092601;28;20188;-39
2023/12/04 09:44:37;;;;;;;15.90;13.63;;;2.10;1.00;;;;;;5074986;28;20189;-39
2023/12/04 09:47:03;;;;;;;13.90;11.67;;;1.80;1.00;;;;;;5092907;28;20455;-40
2023/12/04 09:49:29;;;;;;;15.10;11.90;;;1.30;99.90;;;;;;5075303;28;20421;-40
2023/12/04 09:51:58;;;;;;;14.27;11.90;;;0.80;99.90;;;;;;5075881;28;20485;-40
2023/12/04 09:54:24;;;;;;;13.27;10.70;;;0.50;1.00;;;;;;5075637;28;20462;-40
2023/12/04 09:56:50;;;;;;;11.60;9.90;;;0.40;1.00;;;;;;5093072;28;20419;-41
2023/12/04 09:59:17;;;;;;;13.57;10.83;;;0.00;99.90;;;;;;5075410;28;20460;-40
2023/12/04 10:01:43;;;;;;;13.97;11.60;;;0.10;22.10;;;;;;5059468;28;20450;-40
2023/12/04 10:04:09;;;;;;;15.27;11.67;;;0.20;99.90;;;;;;5060952;28;20422;-39
2023/12/04 10:06:37;;;;;;;15.50;11.57;;;0.30;99.90;;;;;;5077353;28;20878;-40
2023/12/04 10:09:03;;;;;;;15.50;10.40;;;0.40;99.90;;;;;;5061051;28;20251;-40
2023/12/04 10:11:30;;;;;;;13.50;10.80;;;0.40;1.00;;;;;;5075139;28;20639;-41
2023/12/04 10:13:55;;;;;;;13.73;10.73;;;0.30;99.90;;;;;;5093780;28;20429;-39
2023/12/04 10:16:35;;;;;;;13.93;9.43;;;0.20;99.90;;;;;;5074337;28;20414;-42
2023/12/04 10:19:26;;;;;;;14.80;10.20;;;0.10;99.90;;;;;;5092631;28;20263;-40
2023/12/04 10:21:55;;;;;;;12.60;9.63;;;-0.10;1.00;;;;;;5091867;28;20882;-45
2023/12/04 10:24:35;;;;;;;12.00;9.40;;;-0.10;99.90;;;;;;5091530;28;20434;-40
2023/12/04 10:27:09;;;;;;;13.47;10.57;;;0.00;1.00;;;;;;5074233;28;20868;-40
2023/12/04 10:29:47;;;;;;;13.40;9.90;;;0.10;1.00;;;;;;5058872;28;20520;-39
2023/12/04 10:32:12;;;;;;;11.77;8.93;;;0.40;1.00;;;;;;5091665;28;20581;-41
2023/12/04 10:34:39;;;;;;;12.48;10.65;;;0.70;1.00;;;;;;5091892;28;20733;-42
2023/12/04 10:37:05;;;;;;;12.13;9.43;;;1.00;1.00;;;;;;5057543;28;20169;-42
2023/12/04 10:39:31;;;;;;;12.43;9.70;;;1.30;99.90;;;;;;5093879;28;20418;-40
2023/12/04 10:42:03;;;;;;;12.37;9.50;;;1.60;99.90;;;;;;5077044;28;20515;-41
2023/12/04 10:44:32;;;;;;;15.33;9.37;;;1.80;1.00;;;;;;5094753;28;20430;-42
2023/12/04 10:47:01;;;;;;;12.73;10.43;;;1.80;1.00;;;;;;5059834;28;20427;-39
2023/12/04 10:49:28;;;;;;;13.70;8.97;;;1.60;1.00;;;;;;5058970;28;20422;-39
2023/12/04 10:52:01;;;;;;;10.93;9.17;;;1.50;99.90;;;;;;5073435;28;20906;-39
2023/12/04 10:54:27;;;;;;;12.70;9.77;;;1.60;99.90;;;;;;5092388;28;20859;-39
2023/12/04 10:56:53;;;;;;;10.20;8.80;;;1.80;1.00;;;;;;5074652;28;20418;-40
2023/12/04 10:59:27;;;;;;;11.63;9.17;;;2.20;1.00;;;;;;5058550;28;20503;-41
2023/12/04 11:01:55;;;;;;;11.37;9.60;;;2.50;13.20;;;;;;5074868;28;20431;-41
2023/12/04 11:04:26;;;;;;;11.50;8.40;;;2.70;1.00;;;;;;5075168;28;20418;-43
2023/12/04 11:06:53;;;;;;;11.40;9.60;;;2.70;99.90;;;;;;5106407;28;20517;-43
2023/12/04 11:09:21;;;;;;;12.50;9.10;;;2.70;91.60;;;;;;5092422;28;20494;-41
2023/12/04 11:11:51;;;;;;;13.60;10.30;;;2.70;99.90;;;;;;5094024;28;20480;-42
2023/12/04 11:14:19;;;;;;;12.00;10.40;;;2.60;72.10;;;;;;5093879;28;20743;-40
2023/12/04 11:16:47;;;;;;;12.37;10.67;;;2.50;99.90;;;;;;5094366;28;20440;-40
2023/12/04 11:19:22;;;;;;;12.00;9.30;;;2.40;1.00;;;;;;5111663;28;20500;-40
2023/12/04 11:21:47;;;;;;;12.90;10.43;;;2.40;99.90;;;;;;5112132;28;20709;-40
2023/12/04 11:24:13;;;;;;;12.37;10.63;;;2.40;1.00;;;;;;5093725;28;20485;-41
2023/12/04 11:26:40;;;;;;;12.37;9.80;;;2.40;1.00;;;;;;5094526;28;20433;-41
2023/12/04 11:29:08;;;;;;;11.53;10.30;;;2.40;99.90;;;;;;5113496;28;20239;-41
2023/12/04 11:31:34;;;;;;;15.10;11.67;;;2.40;99.90;;;;;;5093549;28;20476;-41
2023/12/04 11:34:03;;;;;;;14.47;10.33;;;2.30;99.90;;;;;;5108766;28;20414;-40
2023/12/04 11:36:29;;;;;;;11.37;10.17;;;2.30;47.10;;;;;;5112752;28;20483;-40
2023/12/04 11:38:56;;;;;;;16.40;10.03;;;2.40;1.00;;;;;;5094694;28;20453;-40
2023/12/04 11:41:25;;;;;;;12.63;11.00;;;2.50;99.90;;;;;;5082860;28;20512;-40
2023/12/04 11:43:51;;;;;;;12.10;10.07;;;2.60;99.90;;;;;;5056784;28;20717;-43
2023/12/04 11:46:30;;;;;;;13.67;11.00;;;2.70;99.90;;;;;;5089309;28;20420;-41
2023/12/04 11:49:17;;;;;;;12.83;10.53;;;2.80;1.00;;;;;;5089554;28;20613;-42
2023/12/04 11:51:44;;;;;;;12.07;9.70;;;2.90;1.00;;;;;;5089322;28;20473;-41
2023/12/04 11:54:10;;;;;;;12.63;10.50;;;3.00;1.00;;;;;;5088914;28;20508;-40
2023/12/04 11:56:36;;;;;;;13.73;10.53;;;3.10;99.90;;;;;;5090776;28;20414;-42
2023/12/04 11:59:06;;;;;;;11.37;9.10;;;3.20;99.90;;;;;;5073582;28;20519;-40
2023/12/04 12:01:39;;;;;;;10.87;8.63;;;3.10;99.90;;;;;;5088276;28;20172;-40
2023/12/04 12:04:05;;;;;;;12.93;9.80;;;3.10;1.00;;;;;;5091960;28;20410;-43
2023/12/04 12:06:33;;;;;;;10.70;8.50;;;3.20;1.00;;;;;;5059545;28;20523;-39
2023/12/04 12:09:00;;;;;;;12.63;9.47;;;3.30;40.80;;;;;;5097846;28;20422;-41
2023/12/04 12:11:26;;;;;;;13.47;9.67;;;3.30;1.00;;;;;;5097772;28;20790;-40
2023/12/04 12:13:53;;;;;;;12.00;8.83;;;3.30;99.90;;;;;;5096246;28;20257;-40
2023/12/04 12:16:19;;;;;;;10.90;9.80;;;3.30;1.00;;;;;;5093724;28;20908;-39
2023/12/04 12:18:44;;;;;;;11.67;9.77;;;3.40;52.00;;;;;;5094043;28;20426;-39
2023/12/04 12:21:11;;;;;;;11.57;9.30;;;3.40;1.00;;;;;;5078178;28;20199;-42
2023/12/04 12:23:36;;;;;;;10.60;9.50;;;3.40;73.50;;;;;;5093963;28;20173;-39
2023/12/04 12:26:02;;;;;;;14.60;11.30;;;3.50;25.10;;;;;;5091527;28;20418;-40
2023/12/04 12:28:31;;;;;;;13.93;11.50;;;3.50;1.00;;;;;;5075339;28;20245;-39
2023/12/04 12:30:56;;;;;;;11.37;10.17;;;3.20;99.90;;;;;;5092532;28;20430;-41